Darlag, China
Current Conditions -  °F | °C
As of 10:00 PM on Saturday 01 Nov 2014 (Local Time) from ZLLL Reporting Station
Clear Clear  
Wind Chill: 32°   Ceiling: Unl
Heat Index: 32°   Visibility: 6mi
Dew Point: 28°   Wind: 2mph
Humidity: 87%   Direction: NA
Pressure: 30.5"   Gusts: NA
Location:  33.75°N, 99.65°E
Report Text: ZLLL 011400Z VRB01MPS CAVOK M00/M02 Q1033 NOSIG
Loading
Personal Weather Stations






























Interactive Weather Map
Tropical Storm Tracking
New forecast layout! Learn more

10-Day Weather Forecast

Advertisements
Track Severe Weather on mobile